Time;durP1;ratioP1;P1;durP2;ratioP2;P2;SDS_P1;SDS_P2;PMS_P1;PMS_P2;Temp;Humidity;BMP_temperature;BMP_pressure;BME280_temperature;BME280_humidity;BME280_pressure;Samples;Min_cycle;Max_cycle;Signal;HPM_P1;HPM_P2
2021/06/21 00:01:11;;;;;;;5.67;3.43;;;;;;;16.11;100.00;94442.03;10533009;28;20032;-73
2021/06/21 00:06:12;;;;;;;4.63;3.25;;;;;;;15.99;100.00;94435.31;10532650;28;20515;-73
2021/06/21 00:11:12;;;;;;;6.60;3.20;;;;;;;15.87;100.00;94435.13;10532544;28;20478;-73
2021/06/21 00:16:13;;;;;;;6.07;3.53;;;;;;;15.81;100.00;94439.88;10531867;28;20032;-73
2021/06/21 00:21:14;;;;;;;6.60;3.40;;;;;;;15.86;100.00;94426.16;10532457;28;20111;-73
2021/06/21 00:26:14;;;;;;;7.28;3.67;;;;;;;15.83;100.00;94423.31;10532772;28;20028;-73
2021/06/21 00:31:15;;;;;;;6.40;3.53;;;;;;;15.80;100.00;94416.59;10531798;28;20043;-73
2021/06/21 00:36:15;;;;;;;7.10;3.60;;;;;;;15.75;100.00;94414.00;10531792;28;20131;-73
2021/06/21 00:41:15;;;;;;;4.03;3.30;;;;;;;15.77;100.00;94411.78;10530257;28;20473;-73
2021/06/21 00:46:16;;;;;;;4.83;3.33;;;;;;;15.82;100.00;94416.28;10530289;28;20043;-73
2021/06/21 00:51:16;;;;;;;6.13;3.58;;;;;;;15.84;100.00;94404.03;10530902;28;20023;-73
2021/06/21 00:56:17;;;;;;;4.10;2.67;;;;;;;15.88;100.00;94407.69;10531561;28;20042;-73
2021/06/21 01:01:18;;;;;;;7.53;5.25;;;;;;;15.79;100.00;94417.72;10530511;28;20506;-73
2021/06/21 01:06:18;;;;;;;5.27;3.03;;;;;;;15.73;100.00;94418.94;10529201;28;20027;-73
2021/06/21 01:11:18;;;;;;;4.67;3.07;;;;;;;15.65;100.00;94414.28;10529706;28;20321;-73
2021/06/21 01:17:05;;;;;;;8.82;3.92;;;;;;;15.49;100.00;94417.41;10528473;28;20302;-73
2021/06/21 01:22:36;;;;;;;4.70;2.80;;;;;;;15.47;100.00;94408.78;10524258;28;20475;-73
2021/06/21 01:27:46;;;;;;;8.48;3.58;;;;;;;15.43;100.00;94413.22;10530181;28;20032;-73
2021/06/21 01:33:08;;;;;;;6.13;3.67;;;;;;;15.42;100.00;94416.25;10529445;28;20056;-73
2021/06/21 01:38:37;;;;;;;18.90;4.18;;;;;;;15.45;100.00;94412.94;10529804;28;20035;-73
2021/06/21 01:43:43;;;;;;;4.88;3.15;;;;;;;15.44;100.00;94420.25;10523721;28;20051;-73
2021/06/21 01:48:48;;;;;;;8.18;3.10;;;;;;;15.38;100.00;94426.91;10529594;28;20039;-73
2021/06/21 01:53:51;;;;;;;3.85;3.00;;;;;;;15.39;100.00;94428.50;10529395;28;20040;-73
2021/06/21 01:58:53;;;;;;;8.07;3.17;;;;;;;15.35;100.00;94432.97;10529632;28;20100;-73
2021/06/21 02:03:56;;;;;;;4.95;3.17;;;;;;;15.33;100.00;94429.75;10529020;28;20039;-73
2021/06/21 02:08:57;;;;;;;4.82;3.75;;;;;;;15.09;100.00;94428.19;10528638;28;20457;-73
2021/06/21 02:13:59;;;;;;;9.82;2.95;;;;;;;14.94;100.00;94431.28;10528999;28;20143;-73
2021/06/21 02:19:00;;;;;;;4.15;3.33;;;;;;;14.74;100.00;94427.16;10528694;28;20039;-73
2021/06/21 02:24:01;;;;;;;4.25;3.30;;;;;;;14.65;100.00;94437.91;10528535;28;20024;-73
2021/06/21 02:29:02;;;;;;;5.15;2.83;;;;;;;14.59;100.00;94445.28;10537670;28;20742;-73
2021/06/21 02:34:03;;;;;;;5.90;3.83;;;;;;;14.61;100.00;94445.81;10542172;28;20048;-73
2021/06/21 02:39:05;;;;;;;4.30;3.40;;;;;;;14.63;100.00;94443.59;10542377;28;20028;-73
2021/06/21 02:44:06;;;;;;;4.00;3.05;;;;;;;14.67;100.00;94435.69;10542105;28;20032;-73
2021/06/21 02:49:07;;;;;;;7.35;4.30;;;;;;;14.83;100.00;94428.00;10541611;28;20719;-73
2021/06/21 02:54:16;;;;;;;7.63;3.67;;;;;;;14.81;100.00;94435.66;10541751;28;20036;-73
2021/06/21 02:59:20;;;;;;;5.30;3.63;;;;;;;14.78;100.00;94431.66;10541760;28;20039;-73
2021/06/21 03:04:22;;;;;;;8.07;3.63;;;;;;;14.74;100.00;94417.13;10541810;28;20024;-73
2021/06/21 03:09:25;;;;;;;7.60;3.70;;;;;;;14.68;100.00;94413.75;10540961;28;20024;-73
2021/06/21 03:14:27;;;;;;;9.93;4.85;;;;;;;14.71;100.00;94425.88;10540344;28;20059;-73
2021/06/21 03:19:28;;;;;;;6.65;4.13;;;;;;;14.80;100.00;94417.81;10541508;28;20028;-73
2021/06/21 03:24:29;;;;;;;12.18;4.30;;;;;;;14.78;100.00;94415.41;10540063;28;20028;-73
2021/06/21 03:29:30;;;;;;;8.80;4.40;;;;;;;14.80;100.00;94415.88;10540943;28;20028;-73
2021/06/21 03:34:35;;;;;;;6.65;4.22;;;;;;;14.89;100.00;94425.97;10540017;28;20410;-73
2021/06/21 03:39:35;;;;;;;5.82;4.15;;;;;;;14.77;100.00;94435.44;10536109;28;20111;-73
2021/06/21 03:44:36;;;;;;;16.07;4.73;;;;;;;14.82;100.00;94427.22;10534443;28;20028;-73
2021/06/21 03:49:37;;;;;;;9.57;4.60;;;;;;;14.92;100.00;94426.16;10533607;28;20110;-73
2021/06/21 03:54:37;;;;;;;13.63;4.60;;;;;;;15.07;100.00;94424.19;10532251;28;20560;-73
2021/06/21 03:59:38;;;;;;;10.23;4.57;;;;;;;15.18;100.00;94412.81;10534054;28;20134;-73
2021/06/21 04:04:38;;;;;;;12.10;3.95;;;;;;;15.18;100.00;94418.22;10533135;28;20024;-73
2021/06/21 04:09:40;;;;;;;14.20;4.85;;;;;;;15.27;100.00;94431.78;10533133;28;20065;-73
2021/06/21 04:14:40;;;;;;;11.45;5.32;;;;;;;15.48;100.00;94439.41;10533212;28;20532;-73
2021/06/21 04:19:40;;;;;;;8.03;4.23;;;;;;;16.08;100.00;94437.25;10533069;28;20028;-73
2021/06/21 04:24:41;;;;;;;8.70;5.23;;;;;;;16.71;100.00;94441.31;10532072;28;20024;-73
2021/06/21 04:29:41;;;;;;;12.33;5.63;;;;;;;17.30;100.00;94436.50;10532468;28;20028;-73
2021/06/21 04:34:43;;;;;;;10.45;3.53;;;;;;;17.89;100.00;94428.47;10532024;28;20700;-73
2021/06/21 04:39:43;;;;;;;3.83;3.17;;;;;;;18.00;100.00;94439.00;10532146;28;20040;-73
2021/06/21 04:44:44;;;;;;;8.80;3.00;;;;;;;18.13;100.00;94453.50;10531786;28;20085;-73
2021/06/21 04:49:45;;;;;;;3.95;3.13;;;;;;;18.67;100.00;94447.38;10531172;28;20111;-73
2021/06/21 04:54:49;;;;;;;5.15;3.35;;;;;;;18.49;100.00;94458.41;10529690;28;20857;-73
2021/06/21 04:59:50;;;;;;;7.28;4.20;;;;;;;18.79;100.00;94463.78;10530377;28;20507;-73
2021/06/21 05:04:50;;;;;;;9.93;4.23;;;;;;;19.08;100.00;94464.88;10530222;28;20111;-73
2021/06/21 05:09:51;;;;;;;4.73;3.50;;;;;;;19.56;100.00;94463.44;10530285;28;20102;-73
2021/06/21 05:14:51;;;;;;;6.93;3.78;;;;;;;19.63;100.00;94466.44;10530631;28;20024;-73
2021/06/21 05:19:51;;;;;;;7.03;3.63;;;;;;;19.71;100.00;94462.00;10530187;28;20411;-73
2021/06/21 05:24:54;;;;;;;18.67;3.70;;;;;;;20.63;100.00;94459.88;10530388;28;20270;-73
2021/06/21 05:29:54;;;;;;;7.38;3.85;;;;;;;21.45;100.00;94457.16;10529525;28;20036;-73
2021/06/21 05:34:55;;;;;;;7.97;3.50;;;;;;;21.81;100.00;94469.03;10529096;28;20063;-73
2021/06/21 05:39:55;;;;;;;8.70;4.33;;;;;;;22.62;100.00;94476.09;10527339;28;20114;-73
2021/06/21 05:44:55;;;;;;;6.37;4.30;;;;;;;23.47;100.00;94483.78;10528664;28;20081;-73
2021/06/21 05:49:56;;;;;;;8.90;3.93;;;;;;;24.00;100.00;94467.56;10528792;28;20047;-73
2021/06/21 05:54:59;;;;;;;9.23;4.47;;;;;;;24.40;100.00;94458.00;10526654;28;20030;-73
2021/06/21 05:59:59;;;;;;;8.43;5.28;;;;;;;24.83;100.00;94454.34;10527190;28;20265;-73
2021/06/21 06:05:00;;;;;;;20.97;5.13;;;;;;;25.02;100.00;94461.66;10527800;28;20016;-73
2021/06/21 06:10:00;;;;;;;9.80;4.57;;;;;;;25.17;100.00;94448.88;10528409;28;20028;-73
2021/06/21 06:15:01;;;;;;;6.37;4.30;;;;;;;25.06;100.00;94455.03;10527893;28;20020;-73
2021/06/21 06:20:02;;;;;;;13.23;4.72;;;;;;;25.42;100.00;94450.00;10528126;28;20129;-73
2021/06/21 06:25:04;;;;;;;12.80;4.07;;;;;;;26.33;93.20;94448.94;10527962;28;20108;-73
2021/06/21 06:30:08;;;;;;;8.15;5.00;;;;;;;27.26;86.82;94458.97;10527519;28;20019;-73
2021/06/21 06:35:09;;;;;;;7.05;4.13;;;;;;;27.11;85.96;94458.09;10527370;28;20387;-73
2021/06/21 06:40:10;;;;;;;11.57;4.80;;;;;;;28.45;75.47;94453.72;10526399;28;20028;-73
2021/06/21 06:45:12;;;;;;;7.85;4.20;;;;;;;29.44;70.95;94447.63;10527610;28;20020;-73
2021/06/21 06:50:14;;;;;;;9.52;4.22;;;;;;;29.78;64.67;94450.63;10526531;28;20032;-73
2021/06/21 07:00:35;;;;;;;7.53;3.95;;;;;;;30.56;59.62;94433.09;10527019;28;20024;-74
2021/06/21 07:05:36;;;;;;;10.75;4.28;;;;;;;31.53;59.93;94437.63;10524615;28;20028;-73
2021/06/21 07:10:36;;;;;;;11.73;4.03;;;;;;;30.96;58.94;94437.03;10526226;28;20536;-73
2021/06/21 07:15:37;;;;;;;8.07;3.90;;;;;;;32.29;51.38;94433.81;10531463;28;20185;-74
2021/06/21 07:20:37;;;;;;;7.10;4.60;;;;;;;32.48;49.64;94430.31;10534077;28;20508;-73
2021/06/21 07:25:37;;;;;;;7.67;4.10;;;;;;;32.74;48.52;94433.50;10534337;28;21005;-74
2021/06/21 07:30:38;;;;;;;13.30;4.40;;;;;;;33.74;45.63;94438.31;10534565;28;20031;-74
2021/06/21 07:35:41;;;;;;;9.77;4.00;;;;;;;33.85;45.46;94436.09;10534278;28;20423;-74
2021/06/21 07:40:41;;;;;;;8.80;3.53;;;;;;;34.49;43.82;94435.09;10533307;28;20071;-74
2021/06/21 07:45:43;;;;;;;19.87;5.73;;;;;;;34.81;43.76;94439.88;10534092;28;20028;-74
2021/06/21 07:50:43;;;;;;;14.45;4.35;;;;;;;35.29;41.68;94434.59;10533794;28;20028;-74
2021/06/21 07:55:44;;;;;;;14.13;5.55;;;;;;;35.20;40.58;94432.44;10532355;28;20024;-74
2021/06/21 08:00:46;;;;;;;13.13;5.07;;;;;;;35.89;41.96;94431.34;10530977;28;20534;-74
2021/06/21 08:05:49;;;;;;;13.45;5.30;;;;;;;35.95;40.97;94427.97;10533117;28;20027;-73
2021/06/21 08:10:50;;;;;;;10.95;5.07;;;;;;;36.79;38.56;94427.72;10531116;28;20472;-73
2021/06/21 08:15:51;;;;;;;10.35;5.30;;;;;;;36.58;39.33;94429.19;10532405;28;20032;-72
2021/06/21 08:20:51;;;;;;;10.48;4.50;;;;;;;36.79;38.01;94416.53;10532225;28;20081;-72
2021/06/21 08:25:52;;;;;;;9.83;4.07;;;;;;;37.24;38.31;94417.34;10532825;28;20024;-73
2021/06/21 08:30:52;;;;;;;12.47;3.97;;;;;;;37.61;36.61;94406.44;10533929;28;20032;-72
2021/06/21 08:35:52;;;;;;;6.43;3.47;;;;;;;37.72;38.08;94414.41;10533120;28;20044;-72
2021/06/21 08:40:53;;;;;;;6.73;3.47;;;;;;;37.31;36.64;94413.53;10533126;28;20118;-72
2021/06/21 08:45:53;;;;;;;6.20;3.10;;;;;;;38.61;35.58;94403.72;10533358;28;20028;-72
2021/06/21 08:50:54;;;;;;;5.27;2.80;;;;;;;38.97;33.52;94394.59;10532537;28;20111;-72
2021/06/21 08:55:54;;;;;;;8.02;3.33;;;;;;;38.42;33.61;94400.88;10532438;28;20028;-72
2021/06/21 09:00:54;;;;;;;10.70;2.80;;;;;;;39.19;34.61;94407.75;10532375;28;20036;-73
2021/06/21 09:05:55;;;;;;;4.60;2.40;;;;;;;39.56;33.33;94404.09;10532016;28;20816;-73
2021/06/21 09:10:55;;;;;;;5.73;2.47;;;;;;;39.02;32.95;94406.44;10531781;28;20479;-73
2021/06/21 09:15:59;;;;;;;5.50;2.35;;;;;;;39.72;34.13;94389.72;10531700;28;20028;-73
2021/06/21 09:21:22;;;;;;;5.00;2.17;;;;;;;39.49;30.92;94393.94;10530699;28;20024;-72
2021/06/21 09:26:26;;;;;;;4.43;1.90;;;;;;;40.15;31.45;94393.34;10531496;28;20018;-73
2021/06/21 09:31:27;;;;;;;8.57;2.00;;;;;;;40.59;30.75;94397.66;10531649;28;20145;-72
2021/06/21 09:36:33;;;;;;;2.90;1.85;;;;;;;41.11;31.14;94389.03;10530102;28;20127;-73
2021/06/21 09:41:33;;;;;;;9.10;2.33;;;;;;;40.70;30.08;94385.09;10538570;28;20107;-73
2021/06/21 09:46:34;;;;;;;6.90;1.97;;;;;;;41.33;27.22;94390.69;10530668;28;20020;-72
2021/06/21 09:51:38;;;;;;;2.33;1.20;;;;;;;41.46;27.04;94385.59;10530590;28;20430;-73
2021/06/21 09:56:51;;;;;;;1.40;0.90;;;;;;;42.83;24.00;94377.22;10530354;28;20414;-73
2021/06/21 10:02:06;;;;;;;1.27;1.15;;;;;;;42.62;24.32;94371.56;10530476;28;20038;-73
2021/06/21 10:07:27;;;;;;;0.90;0.73;;;;;;;42.35;24.70;94376.31;10530191;28;20031;-73
2021/06/21 10:12:28;;;;;;;1.70;1.38;;;;;;;42.74;25.70;94366.03;10528232;28;20025;-73
2021/06/21 10:17:28;;;;;;;2.70;1.08;;;;;;;42.73;26.05;94362.47;10529919;28;20032;-73
2021/06/21 10:22:29;;;;;;;2.80;0.97;;;;;;;40.28;27.84;94356.50;10529493;28;20088;-72
2021/06/21 10:27:32;;;;;;;1.97;1.10;;;;;;;41.83;26.65;94364.69;10529370;28;20040;-72
2021/06/21 10:32:34;;;;;;;5.63;1.10;;;;;;;43.01;23.69;94357.13;10529046;28;20127;-73
2021/06/21 10:37:36;;;;;;;1.52;0.90;;;;;;;42.86;23.96;94353.63;10528389;28;20031;-73
2021/06/21 10:42:43;;;;;;;1.77;0.90;;;;;;;44.15;24.49;94361.06;10529328;28;20506;-73
2021/06/21 10:47:49;;;;;;;2.10;1.10;;;;;;;43.99;24.05;94357.59;10531708;28;20024;-73
2021/06/21 10:52:50;;;;;;;2.17;1.20;;;;;;;44.43;23.90;94346.31;10537787;28;20040;-73
2021/06/21 10:57:52;;;;;;;2.13;0.98;;;;;;;44.35;24.84;94346.00;10537124;28;20479;-73
2021/06/21 11:02:52;;;;;;;3.47;1.00;;;;;;;42.80;24.08;94335.78;10536512;28;20024;-73
2021/06/21 11:08:13;;;;;;;3.47;0.90;;;;;;;38.56;26.95;94334.94;10537555;28;20028;-73
2021/06/21 11:13:32;;;;;;;2.33;1.27;;;;;;;35.97;32.07;94336.03;10536436;28;20028;-72
2021/06/21 11:18:33;;;;;;;2.85;1.70;;;;;;;33.74;33.25;94318.47;10536551;28;20449;-72
2021/06/21 11:23:43;;;;;;;1.83;1.63;;;;;;;33.10;36.79;94318.69;10536331;28;20020;-72
2021/06/21 11:28:48;;;;;;;2.58;1.52;;;;;;;31.94;40.55;94325.53;10536243;28;20063;-72
2021/06/21 11:33:52;;;;;;;7.35;1.42;;;;;;;32.01;39.89;94330.16;10535689;28;20117;-73
2021/06/21 11:39:18;;;;;;;2.78;1.33;;;;;;;31.65;41.38;94319.63;10534550;28;20031;-73
2021/06/21 11:44:37;;;;;;;4.05;1.55;;;;;;;31.20;38.12;94323.38;10534468;28;20024;-73
2021/06/21 11:49:37;;;;;;;8.77;2.08;;;;;;;31.08;39.95;94315.66;10535357;28;20444;-73
2021/06/21 11:54:41;;;;;;;3.20;1.63;;;;;;;30.70;40.86;94308.16;10534871;28;20028;-73
2021/06/21 11:59:44;;;;;;;7.40;1.90;;;;;;;30.33;43.15;94316.00;10533907;28;20107;-73
2021/06/21 12:04:46;;;;;;;2.80;1.50;;;;;;;30.57;42.57;94318.97;10534914;28;20024;-73
2021/06/21 12:09:52;;;;;;;3.85;1.30;;;;;;;30.25;42.86;94319.28;10534447;28;20062;-72
2021/06/21 12:14:53;;;;;;;1.42;1.10;;;;;;;30.23;44.56;94319.69;10534400;28;20407;-73
2021/06/21 12:20:06;;;;;;;2.88;2.03;;;;;;;30.33;47.40;94316.00;10532863;28;20042;-73
2021/06/21 12:25:32;;;;;;;5.78;1.48;;;;;;;30.44;46.04;94302.06;10533918;28;20032;-73
2021/06/21 12:30:37;;;;;;;3.92;1.70;;;;;;;30.49;45.63;94298.06;10533986;28;20414;-73
2021/06/21 12:35:38;;;;;;;2.08;1.40;;;;;;;30.16;46.39;94301.13;10532860;28;20079;-73
2021/06/21 12:40:38;;;;;;;2.33;1.50;;;;;;;30.27;57.18;94314.91;10532714;28;20115;-73
2021/06/21 12:45:38;;;;;;;5.33;2.10;;;;;;;30.26;59.07;94315.31;10532868;28;20028;-73
2021/06/21 12:50:39;;;;;;;1.97;1.20;;;;;;;30.06;52.60;94309.53;10532425;28;20128;-73
2021/06/21 12:55:40;;;;;;;4.38;1.33;;;;;;;29.74;47.57;94311.38;10532842;28;20125;-73
2021/06/21 13:00:44;;;;;;;1.13;1.02;;;;;;;29.71;47.73;94306.66;10532403;28;20135;-73
2021/06/21 13:05:56;;;;;;;1.73;1.20;;;;;;;29.55;41.73;94298.06;10531936;28;20059;-73
2021/06/21 13:11:10;;;;;;;4.07;1.42;;;;;;;29.57;48.40;94298.44;10531992;28;20111;-73
2021/06/21 13:16:28;;;;;;;1.10;1.00;;;;;;;29.25;46.67;94289.16;10533239;28;20032;-73
2021/06/21 13:21:34;;;;;;;;;;;;;;;29.17;43.90;94292.34;10530321;28;20036;-73
2021/06/21 13:26:38;;;;;;;3.33;1.33;;;;;;;29.23;51.42;94291.50;10531184;28;20322;-73
2021/06/21 13:31:38;;;;;;;7.28;1.17;;;;;;;29.12;45.52;94283.28;10530795;28;20032;-73
2021/06/21 13:36:57;;;;;;;3.30;1.80;;;;;;;29.16;47.28;94291.56;10531046;28;20475;-73
2021/06/21 13:42:00;;;;;;;3.80;1.38;;;;;;;28.04;56.78;94296.66;10531015;28;20028;-73
2021/06/21 13:47:01;;;;;;;5.78;2.38;;;;;;;26.56;64.50;94305.38;10530480;28;20106;-72
2021/06/21 13:52:11;;;;;;;5.53;1.65;;;;;;;25.56;73.01;94305.47;10530914;28;20097;-73
2021/06/21 13:57:11;;;;;;;2.83;1.63;;;;;;;25.12;89.22;94293.28;10530185;28;20020;-72
2021/06/21 14:02:12;;;;;;;5.70;2.60;;;;;;;25.10;95.03;94294.81;10530106;28;20024;-72
2021/06/21 14:07:13;;;;;;;2.45;1.85;;;;;;;25.27;84.36;94296.97;10530080;28;20278;-72
2021/06/21 14:12:13;;;;;;;2.72;2.22;;;;;;;25.44;87.51;94292.81;10529202;28;20472;-72
2021/06/21 14:17:14;;;;;;;7.00;2.50;;;;;;;25.62;80.75;94298.47;10529886;28;20019;-72
2021/06/21 14:22:15;;;;;;;5.22;2.28;;;;;;;25.90;76.02;94295.13;10528752;28;20029;-72
2021/06/21 14:27:17;;;;;;;2.20;2.00;;;;;;;26.15;86.42;94302.00;10529000;28;20501;-72
2021/06/21 14:32:17;;;;;;;7.55;2.88;;;;;;;26.30;81.31;94303.66;10528681;28;20067;-72
2021/06/21 14:37:18;;;;;;;7.53;1.87;;;;;;;26.57;70.70;94292.41;10529236;28;20415;-72
2021/06/21 14:42:18;;;;;;;4.23;1.67;;;;;;;26.87;81.55;94305.16;10529256;28;20471;-72
2021/06/21 14:47:20;;;;;;;5.73;2.40;;;;;;;27.24;74.37;94295.81;10528913;28;20783;-73
2021/06/21 14:52:20;;;;;;;4.13;2.80;;;;;;;27.49;69.54;94297.81;10528774;28;20269;-73
2021/06/21 14:57:20;;;;;;;8.70;4.40;;;;;;;27.64;68.88;94285.59;10528733;28;20035;-72
2021/06/21 15:02:21;;;;;;;6.20;2.20;;;;;;;27.76;59.10;94292.72;10526838;28;20039;-72
2021/06/21 15:07:21;;;;;;;4.05;1.52;;;;;;;27.75;57.00;94283.63;10528181;28;20078;-72
2021/06/21 15:12:22;;;;;;;4.38;2.58;;;;;;;27.76;61.11;94273.38;10528393;28;20024;-72
2021/06/21 15:17:22;;;;;;;6.15;3.15;;;;;;;27.66;60.40;94268.63;10528053;28;20100;-73
2021/06/21 15:22:23;;;;;;;3.07;2.40;;;;;;;27.62;71.63;94266.66;10528245;28;20019;-72
2021/06/21 15:27:24;;;;;;;3.50;2.20;;;;;;;27.55;71.84;94263.91;10528366;28;20266;-72
2021/06/21 15:32:24;;;;;;;6.57;1.90;;;;;;;27.44;72.17;94274.94;10527956;28;20305;-72
2021/06/21 15:37:24;;;;;;;6.50;2.00;;;;;;;27.38;73.35;94276.53;10533786;28;20479;-72
2021/06/21 15:42:25;;;;;;;2.47;2.03;;;;;;;27.36;71.49;94283.63;10535663;28;20274;-72
2021/06/21 15:47:26;;;;;;;3.22;1.90;;;;;;;27.24;72.41;94280.03;10534978;28;20028;-73
2021/06/21 15:52:26;;;;;;;3.22;2.22;;;;;;;27.19;71.83;94279.63;10534965;28;20043;-72
2021/06/21 15:57:27;;;;;;;7.93;2.57;;;;;;;27.10;73.27;94285.53;10534929;28;20031;-73
2021/06/21 16:02:27;;;;;;;5.07;2.13;;;;;;;27.05;74.33;94285.91;10535184;28;20794;-73
2021/06/21 16:07:29;;;;;;;2.83;2.10;;;;;;;26.99;75.57;94293.75;10534615;28;20284;-73
2021/06/21 16:12:30;;;;;;;2.72;1.88;;;;;;;26.87;75.85;94303.16;10532956;28;20024;-73
2021/06/21 16:17:31;;;;;;;4.90;2.20;;;;;;;26.78;73.58;94311.03;10534000;28;20494;-73
2021/06/21 16:22:32;;;;;;;5.47;2.33;;;;;;;26.71;77.86;94316.50;10533930;28;20032;-73
2021/06/21 16:27:34;;;;;;;2.47;1.70;;;;;;;26.67;77.98;94313.72;10533618;28;20020;-73
2021/06/21 16:32:34;;;;;;;2.42;2.22;;;;;;;26.55;76.54;94319.56;10533394;28;22517;-73
2021/06/21 16:37:35;;;;;;;6.13;2.20;;;;;;;26.52;78.71;94317.56;10533553;28;20036;-73
2021/06/21 16:42:35;;;;;;;11.13;2.60;;;;;;;26.44;81.77;94313.97;10533524;28;20016;-73
2021/06/21 16:47:35;;;;;;;7.10;2.60;;;;;;;26.46;80.74;94317.16;10532823;28;20326;-73
2021/06/21 16:52:36;;;;;;;7.43;2.70;;;;;;;26.41;82.62;94315.53;10532687;28;20840;-73
2021/06/21 16:57:46;;;;;;;7.05;2.70;;;;;;;26.42;83.76;94306.09;10531546;28;20036;-73
2021/06/21 17:02:46;;;;;;;4.13;2.85;;;;;;;26.30;90.29;94302.88;10532493;28;20024;-73
2021/06/21 17:07:49;;;;;;;15.53;3.00;;;;;;;26.16;92.40;94295.34;10532343;28;20028;-73
2021/06/21 17:12:50;;;;;;;11.25;3.05;;;;;;;26.01;92.28;94303.50;10530504;28;20024;-73
2021/06/21 17:17:52;;;;;;;4.68;2.60;;;;;;;25.87;95.95;94306.13;10531891;28;20036;-73
2021/06/21 17:22:54;;;;;;;5.45;2.85;;;;;;;25.72;98.10;94299.72;10531786;28;20030;-73
2021/06/21 17:27:55;;;;;;;6.95;2.85;;;;;;;25.48;98.97;94317.59;10531246;28;20034;-73
2021/06/21 17:32:57;;;;;;;8.23;3.15;;;;;;;25.44;100.00;94309.31;10530909;28;20051;-73
2021/06/21 17:38:00;;;;;;;15.57;3.50;;;;;;;25.34;97.31;94302.56;10531435;28;20042;-73
2021/06/21 17:43:01;;;;;;;5.18;3.15;;;;;;;25.41;97.78;94310.06;10531093;28;20027;-73
2021/06/21 17:48:02;;;;;;;6.13;3.72;;;;;;;25.37;100.00;94329.28;10529198;28;20420;-73
2021/06/21 17:53:03;;;;;;;8.23;3.88;;;;;;;25.44;100.00;94327.78;10533353;28;20034;-73
2021/06/21 17:58:04;;;;;;;5.53;2.90;;;;;;;25.31;100.00;94346.47;10529929;28;20032;-73
2021/06/21 18:03:06;;;;;;;16.70;4.32;;;;;;;25.13;100.00;94344.34;10530106;28;20034;-73
2021/06/21 18:08:07;;;;;;;5.80;2.83;;;;;;;25.05;100.00;94343.47;10530465;28;20054;-73
2021/06/21 18:13:10;;;;;;;9.82;3.75;;;;;;;24.98;100.00;94343.41;10529533;28;20028;-73
2021/06/21 18:18:11;;;;;;;6.75;4.00;;;;;;;24.97;100.00;94346.53;10494903;28;20038;-73
2021/06/21 18:23:12;;;;;;;4.30;3.63;;;;;;;24.89;100.00;94351.13;10509304;28;20020;-73
2021/06/21 18:28:13;;;;;;;9.98;4.20;;;;;;;24.62;100.00;94337.47;10529461;28;20038;-73
2021/06/21 18:33:14;;;;;;;9.55;3.92;;;;;;;24.52;100.00;94338.09;10529580;28;20525;-73
2021/06/21 18:38:16;;;;;;;9.82;4.30;;;;;;;24.20;100.00;94343.94;10529490;28;20028;-73
2021/06/21 18:43:16;;;;;;;10.35;3.55;;;;;;;23.96;100.00;94340.44;10529187;28;20024;-73
2021/06/21 18:48:17;;;;;;;9.97;4.20;;;;;;;23.67;100.00;94334.47;10529106;28;20020;-73
2021/06/21 18:53:18;;;;;;;7.45;3.78;;;;;;;23.42;100.00;94333.25;10529269;28;20041;-73
2021/06/21 18:58:19;;;;;;;8.10;3.80;;;;;;;23.21;100.00;94348.16;10528040;28;20020;-73
2021/06/21 19:03:20;;;;;;;7.35;3.92;;;;;;;23.14;100.00;94357.03;10528207;28;20031;-73
2021/06/21 19:08:20;;;;;;;7.07;4.22;;;;;;;23.21;100.00;94343.47;10528726;28;20039;-73
2021/06/21 19:13:21;;;;;;;12.80;5.13;;;;;;;23.18;100.00;94343.41;10535743;28;20020;-73
2021/06/21 19:18:21;;;;;;;10.45;4.55;;;;;;;23.13;100.00;94357.41;10535569;28;20387;-73
2021/06/21 19:23:22;;;;;;;8.63;4.47;;;;;;;23.17;100.00;94364.53;10535497;28;20027;-73
2021/06/21 19:28:23;;;;;;;13.43;4.70;;;;;;;23.14;100.00;94350.78;10535478;28;20028;-73
2021/06/21 19:33:23;;;;;;;12.73;5.32;;;;;;;22.99;100.00;94355.94;10534815;28;20056;-73
2021/06/21 19:38:28;;;;;;;18.17;5.25;;;;;;;22.67;100.00;94372.53;10535145;28;20027;-73
2021/06/21 19:43:28;;;;;;;8.80;4.85;;;;;;;22.65;100.00;94380.31;10535153;28;20479;-73
2021/06/21 19:48:30;;;;;;;11.20;5.13;;;;;;;22.47;100.00;94379.16;10534241;28;20024;-73
2021/06/21 19:53:31;;;;;;;11.55;4.50;;;;;;;22.51;100.00;94380.03;10533727;28;20032;-73
2021/06/21 19:58:33;;;;;;;8.55;5.22;;;;;;;22.47;100.00;94387.38;10532799;28;20034;-73
2021/06/21 20:03:34;;;;;;;8.07;5.53;;;;;;;22.33;100.00;94390.56;10533487;28;20403;-73
2021/06/21 20:08:34;;;;;;;13.37;5.20;;;;;;;22.33;100.00;94385.06;10533082;28;20035;-73
2021/06/21 20:13:35;;;;;;;8.80;4.50;;;;;;;22.15;100.00;94401.09;10533010;28;20103;-73
2021/06/21 20:18:35;;;;;;;6.10;4.23;;;;;;;21.93;100.00;94400.56;10533118;28;20518;-73
2021/06/21 20:23:36;;;;;;;7.18;4.07;;;;;;;21.89;100.00;94412.56;10531963;28;20457;-73
2021/06/21 20:28:37;;;;;;;6.97;4.13;;;;;;;21.46;100.00;94404.03;10532454;28;20024;-73
2021/06/21 20:33:47;;;;;;;7.07;4.10;;;;;;;21.28;100.00;94409.03;10532369;28;20486;-73
2021/06/21 20:38:47;;;;;;;7.38;3.88;;;;;;;21.02;100.00;94412.25;10532046;28;20035;-73
2021/06/21 20:43:48;;;;;;;7.13;3.70;;;;;;;20.89;100.00;94404.09;10532220;28;20028;-73
2021/06/21 20:48:48;;;;;;;7.57;3.07;;;;;;;20.84;100.00;94412.53;10531563;28;20031;-73
2021/06/21 20:53:48;;;;;;;9.33;4.43;;;;;;;20.89;100.00;94411.47;10531328;28;20398;-73
2021/06/21 20:58:49;;;;;;;14.60;3.77;;;;;;;21.02;100.00;94415.78;10530649;28;20278;-73
2021/06/21 21:03:50;;;;;;;9.80;7.72;;;;;;;20.86;100.00;94410.25;10531053;28;20020;-73
2021/06/21 21:08:50;;;;;;;11.65;3.70;;;;;;;20.96;100.00;94420.69;10531338;28;20089;-73
2021/06/21 21:13:51;;;;;;;16.77;7.70;;;;;;;21.02;100.00;94413.03;10523378;28;20024;-74
2021/06/21 21:18:51;;;;;;;5.10;4.13;;;;;;;20.81;100.00;94407.75;10488497;28;20452;-74
2021/06/21 21:23:51;;;;;;;8.77;3.83;;;;;;;20.88;100.00;94415.38;10488507;28;20029;-73
2021/06/21 21:28:52;;;;;;;9.30;4.33;;;;;;;20.80;100.00;94426.06;10488349;28;20119;-73
2021/06/21 21:33:52;;;;;;;9.97;4.50;;;;;;;20.67;100.00;94424.50;10486204;28;20053;-73
2021/06/21 21:38:53;;;;;;;10.23;4.43;;;;;;;20.80;100.00;94423.34;10487127;28;20267;-73
2021/06/21 21:43:53;;;;;;;9.57;4.25;;;;;;;20.68;100.00;94419.84;10486781;28;20057;-73
2021/06/21 21:48:53;;;;;;;6.67;3.93;;;;;;;20.69;100.00;94418.72;10487223;28;20046;-73
2021/06/21 21:53:54;;;;;;;8.23;3.90;;;;;;;20.70;100.00;94436.69;10486774;28;20032;-73
2021/06/21 21:58:54;;;;;;;8.23;3.60;;;;;;;20.53;100.00;94435.78;10487248;28;20483;-73
2021/06/21 22:03:55;;;;;;;8.30;4.67;;;;;;;20.65;100.00;94443.16;10487281;28;20108;-73
2021/06/21 22:08:55;;;;;;;4.38;3.70;;;;;;;20.71;100.00;94432.81;10486900;28;20020;-73
2021/06/21 22:13:55;;;;;;;8.30;4.47;;;;;;;20.68;100.00;94444.44;10487377;28;20035;-73
2021/06/21 22:18:57;;;;;;;9.73;4.47;;;;;;;20.60;100.00;94449.66;10487055;28;20028;-73
2021/06/21 22:23:57;;;;;;;5.90;4.53;;;;;;;20.69;100.00;94446.81;10487126;28;20020;-73
2021/06/21 22:28:57;;;;;;;5.53;4.22;;;;;;;20.77;100.00;94445.88;10502298;28;20016;-73
2021/06/21 22:33:58;;;;;;;16.73;6.37;;;;;;;20.67;100.00;94451.81;10486412;28;20047;-73
2021/06/21 22:38:58;;;;;;;8.48;4.65;;;;;;;20.68;100.00;94450.72;10502735;28;20021;-74
2021/06/21 22:43:59;;;;;;;6.83;4.83;;;;;;;20.57;100.00;94458.53;10489062;28;20399;-74
2021/06/21 22:48:59;;;;;;;7.97;4.77;;;;;;;20.54;100.00;94453.78;10510760;28;20492;-73
2021/06/21 22:53:59;;;;;;;5.30;4.20;;;;;;;20.51;100.00;94446.25;10494473;28;20020;-74
2021/06/21 22:59:00;;;;;;;5.33;4.43;;;;;;;20.41;100.00;94439.31;10494673;28;20032;-73
2021/06/21 23:04:00;;;;;;;8.67;4.40;;;;;;;20.41;100.00;94444.78;10494069;28;20126;-74
2021/06/21 23:09:00;;;;;;;12.07;4.17;;;;;;;20.53;100.00;94445.94;10493784;28;20270;-74
2021/06/21 23:14:01;;;;;;;8.27;4.67;;;;;;;20.63;100.00;94446.22;10493619;28;20051;-74
2021/06/21 23:19:01;;;;;;;15.63;5.45;;;;;;;20.68;100.00;94434.31;10505581;28;20074;-74